Red Hook, New York
Current Conditions -  °F | °C
As of 10:04 AM on Tuesday 21 Oct 2014 (Local Time) from KPOU Reporting Station
Light Rain Light Rain  
Wind Chill: 51°   Ceiling: 4700
Heat Index: 51°   Visibility: 4mi
Dew Point: 49°   Wind: 3mph
Humidity: 92%   Direction: 10°N
Pressure: 29.93"   Gusts: NA
Location:  42°N, 73.88°W
Report Text: KPOU 211404Z 01003KT 4SM -RA BR OVC047 11/09 A2993 RMK AO2 P0001 T01060094
Loading
Personal Weather Stations






























Interactive Weather Map
Tropical Storm Tracking
New forecast layout! Learn more

10-Day Weather Forecast

Advertisements
Track Severe Weather on mobile